createdAt,value
2023-10-20T00:00:47.795Z,10.6
2023-10-20T00:01:48.988Z,10.6
2023-10-20T00:02:50.335Z,10.6
2023-10-20T00:03:51.502Z,10.6
2023-10-20T00:04:52.682Z,10.6
2023-10-20T00:05:53.851Z,10.6
2023-10-20T00:06:55.015Z,10.6
2023-10-20T00:07:56.214Z,10.6
2023-10-20T00:08:57.380Z,10.6
2023-10-20T00:09:58.547Z,10.6
2023-10-20T00:10:59.721Z,10.6
2023-10-20T00:12:00.878Z,10.6
2023-10-20T00:13:02.072Z,10.6
2023-10-20T00:14:03.259Z,10.6
2023-10-20T00:15:04.438Z,10.6
2023-10-20T00:16:05.624Z,10.5
2023-10-20T00:17:07.013Z,10.6
2023-10-20T00:18:08.355Z,10.6
2023-10-20T00:19:09.638Z,10.5
2023-10-20T00:20:10.875Z,10.5
2023-10-20T00:21:12.262Z,10.5
2023-10-20T00:22:13.400Z,10.5
2023-10-20T00:23:14.569Z,10.5
2023-10-20T00:24:15.819Z,10.5
2023-10-20T00:25:16.983Z,10.5
2023-10-20T00:26:18.186Z,10.5
2023-10-20T00:27:19.356Z,10.5
2023-10-20T00:28:20.544Z,10.5
2023-10-20T00:29:21.719Z,10.5
2023-10-20T00:30:22.980Z,10.5
2023-10-20T00:31:24.184Z,10.5
2023-10-20T00:32:25.506Z,10.5
2023-10-20T00:33:26.967Z,10.5
2023-10-20T00:34:28.110Z,10.5
2023-10-20T00:35:29.297Z,10.5
2023-10-20T00:36:30.494Z,10.5
2023-10-20T00:37:31.660Z,10.5
2023-10-20T00:38:32.950Z,10.5
2023-10-20T00:39:34.142Z,10.5
2023-10-20T00:40:35.308Z,10.5
2023-10-20T00:41:36.491Z,10.5
2023-10-20T00:42:37.860Z,10.5
2023-10-20T00:43:39.264Z,10.5
2023-10-20T00:44:40.544Z,10.5
2023-10-20T00:45:41.812Z,10.5
2023-10-20T00:46:42.980Z,10.5
2023-10-20T00:47:44.251Z,10.5
2023-10-20T00:48:45.655Z,10.5
2023-10-20T00:49:47.073Z,10.5
2023-10-20T00:50:48.231Z,10.5
2023-10-20T00:51:49.402Z,10.5
2023-10-20T00:52:50.569Z,10.5
2023-10-20T00:53:51.884Z,10.5
2023-10-20T00:54:53.016Z,10.5
2023-10-20T00:55:54.222Z,10.5
2023-10-20T00:56:55.352Z,10.5
2023-10-20T00:57:56.521Z,10.5
2023-10-20T00:58:57.708Z,10.5
2023-10-20T00:59:58.887Z,10.5
2023-10-20T01:01:00.068Z,10.5
2023-10-20T01:02:01.499Z,10.4
2023-10-20T01:03:02.916Z,10.5
2023-10-20T01:04:04.524Z,10.5
2023-10-20T01:05:05.892Z,10.5
2023-10-20T01:06:07.124Z,10.5
2023-10-20T01:07:08.289Z,10.4
2023-10-20T01:08:09.486Z,10.4
2023-10-20T01:09:10.747Z,10.4
2023-10-20T01:10:12.504Z,10.4
2023-10-20T01:11:13.731Z,10.4
2023-10-20T01:12:14.896Z,10.4
2023-10-20T01:13:16.053Z,10.4
2023-10-20T01:14:17.281Z,10.4
2023-10-20T01:15:18.487Z,10.4
2023-10-20T01:16:19.664Z,10.4
2023-10-20T01:17:20.935Z,10.4
2023-10-20T01:18:22.280Z,10.4
2023-10-20T01:19:23.633Z,10.4
2023-10-20T01:20:24.802Z,10.4
2023-10-20T01:21:26.024Z,10.4
2023-10-20T01:22:27.192Z,10.4
2023-10-20T01:23:28.389Z,10.4
2023-10-20T01:24:29.643Z,10.4
2023-10-20T01:25:30.830Z,10.4
2023-10-20T01:26:31.998Z,10.4
2023-10-20T01:27:33.249Z,10.4
2023-10-20T01:28:34.417Z,10.4
2023-10-20T01:29:35.631Z,10.4
2023-10-20T01:30:36.865Z,10.4
2023-10-20T01:31:38.036Z,10.4
2023-10-20T01:32:39.260Z,10.4
2023-10-20T01:33:40.630Z,10.4
2023-10-20T01:34:41.874Z,10.4
2023-10-20T01:35:43.056Z,10.4
2023-10-20T01:36:44.271Z,10.4
2023-10-20T01:37:45.429Z,10.4
2023-10-20T01:38:46.625Z,10.4
2023-10-20T01:39:47.763Z,10.4
2023-10-20T01:40:48.935Z,10.4
2023-10-20T01:41:50.108Z,10.4
2023-10-20T01:42:51.364Z,10.4
2023-10-20T01:43:52.519Z,10.4
2023-10-20T01:44:53.686Z,10.4
2023-10-20T01:45:54.879Z,10.4
2023-10-20T01:46:56.073Z,10.4
2023-10-20T01:47:57.423Z,10.4
2023-10-20T01:48:58.786Z,10.4
2023-10-20T01:49:59.976Z,10.4
2023-10-20T01:51:01.148Z,10.4
2023-10-20T01:52:02.307Z,10.4
2023-10-20T01:53:03.505Z,10.4
2023-10-20T01:54:04.820Z,10.4
2023-10-20T01:55:06.040Z,10.4
2023-10-20T01:56:07.279Z,10.4
2023-10-20T01:57:08.904Z,10.4
2023-10-20T01:58:10.063Z,10.4
2023-10-20T01:59:11.262Z,10.4
2023-10-20T02:00:12.553Z,10.4
2023-10-20T02:01:13.725Z,10.4
2023-10-20T02:02:15.064Z,10.4
2023-10-20T02:03:16.504Z,10.4
2023-10-20T02:04:18.122Z,10.4
2023-10-20T02:05:19.298Z,10.3
2023-10-20T02:06:20.457Z,10.4
2023-10-20T02:07:21.634Z,10.4
2023-10-20T02:08:22.836Z,10.3
2023-10-20T02:09:24.170Z,10.3
2023-10-20T02:10:25.433Z,10.3
2023-10-20T02:11:26.588Z,10.3
2023-10-20T02:12:27.854Z,10.3
2023-10-20T02:13:29.019Z,10.3
2023-10-20T02:14:30.221Z,10.3
2023-10-20T02:15:31.647Z,10.3
2023-10-20T02:16:32.859Z,10.4
2023-10-20T02:17:34.207Z,10.3
2023-10-20T02:18:35.514Z,10.3
2023-10-20T02:19:36.704Z,10.3
2023-10-20T02:20:37.910Z,10.3
2023-10-20T02:21:39.107Z,10.3
2023-10-20T02:22:40.275Z,10.3
2023-10-20T02:23:41.467Z,10.3
2023-10-20T02:24:42.708Z,10.3
2023-10-20T02:25:43.898Z,10.3
2023-10-20T02:26:45.049Z,10.3
2023-10-20T02:27:46.217Z,10.3
2023-10-20T02:28:47.373Z,10.3
2023-10-20T02:29:48.545Z,10.3
2023-10-20T02:30:49.764Z,10.3
2023-10-20T02:31:50.980Z,10.3
2023-10-20T02:32:52.204Z,10.3
2023-10-20T02:33:53.502Z,10.3
2023-10-20T02:34:54.699Z,10.3
2023-10-20T02:35:55.909Z,10.3
2023-10-20T02:36:57.043Z,10.3
2023-10-20T02:37:58.207Z,10.3
2023-10-20T02:38:59.402Z,10.3
2023-10-20T02:40:00.545Z,10.3
2023-10-20T02:41:01.788Z,10.3
2023-10-20T02:42:02.965Z,10.3
2023-10-20T02:43:04.134Z,10.3
2023-10-20T02:44:05.325Z,10.3
2023-10-20T02:45:06.476Z,10.3
2023-10-20T02:46:07.709Z,10.3
2023-10-20T02:47:08.898Z,10.3
2023-10-20T02:48:10.257Z,10.3
2023-10-20T02:49:11.675Z,10.3
2023-10-20T02:50:12.932Z,10.3
2023-10-20T02:51:14.205Z,10.3
2023-10-20T02:52:15.353Z,10.3
2023-10-20T02:53:16.612Z,10.3
2023-10-20T02:54:17.870Z,10.3
2023-10-20T02:55:19.066Z,10.3
2023-10-20T02:56:20.347Z,10.3
2023-10-20T02:57:21.728Z,10.3
2023-10-20T02:58:22.878Z,10.3
2023-10-20T02:59:24.087Z,10.3
2023-10-20T03:00:25.483Z,10.3
2023-10-20T03:01:26.611Z,10.3
2023-10-20T03:02:27.908Z,10.3
2023-10-20T03:03:29.846Z,10.3
2023-10-20T03:04:31.735Z,10.3
2023-10-20T03:05:34.354Z,10.3
2023-10-20T03:06:35.559Z,10.3
2023-10-20T03:07:36.721Z,10.3
2023-10-20T03:08:37.939Z,10.3
2023-10-20T03:09:39.220Z,10.3
2023-10-20T03:10:40.439Z,10.3
2023-10-20T03:11:41.631Z,10.3
2023-10-20T03:12:42.856Z,10.3
2023-10-20T03:13:44.020Z,10.3
2023-10-20T03:14:45.246Z,10.3
2023-10-20T03:15:46.441Z,10.3
2023-10-20T03:16:47.635Z,10.3
2023-10-20T03:17:48.990Z,10.3
2023-10-20T03:18:50.386Z,10.3
2023-10-20T03:19:51.553Z,10.3
2023-10-20T03:20:52.749Z,10.3
2023-10-20T03:21:53.886Z,10.3
2023-10-20T03:22:55.056Z,10.3
2023-10-20T03:23:56.215Z,10.3
2023-10-20T03:24:57.377Z,10.3
2023-10-20T03:25:58.582Z,10.3
2023-10-20T03:26:59.824Z,10.3
2023-10-20T03:28:01.188Z,10.3
2023-10-20T03:29:02.387Z,10.3
2023-10-20T03:30:03.598Z,10.3
2023-10-20T03:31:04.762Z,10.3
2023-10-20T03:32:05.932Z,10.3
2023-10-20T03:33:07.161Z,10.3
2023-10-20T03:35:19.248Z,10.3
2023-10-20T03:36:20.473Z,10.3
2023-10-20T03:37:21.608Z,10.3
2023-10-20T03:38:22.805Z,10.3
2023-10-20T03:39:24.045Z,10.3
2023-10-20T03:40:25.212Z,10.3
2023-10-20T03:41:26.490Z,10.3
2023-10-20T03:42:28.102Z,10.3
2023-10-20T03:43:29.266Z,10.3
2023-10-20T03:44:30.488Z,10.3
2023-10-20T03:45:32.050Z,10.3
2023-10-20T03:46:33.263Z,10.3
2023-10-20T03:47:34.508Z,10.3
2023-10-20T03:48:35.814Z,10.3
2023-10-20T03:49:37.240Z,10.3
2023-10-20T03:50:38.455Z,10.3
2023-10-20T03:51:39.768Z,10.3
2023-10-20T03:52:40.932Z,10.3
2023-10-20T03:53:42.134Z,10.3
2023-10-20T03:54:43.552Z,10.3
2023-10-20T03:55:44.701Z,10.3
2023-10-20T03:56:45.909Z,10.3
2023-10-20T03:57:47.163Z,10.3
2023-10-20T03:58:48.418Z,10.3
2023-10-20T03:59:49.625Z,10.3
2023-10-20T04:00:50.770Z,10.3
2023-10-20T04:01:51.960Z,10.3
2023-10-20T04:02:53.461Z,10.3
2023-10-20T04:03:54.828Z,10.3
2023-10-20T04:04:55.987Z,10.3
2023-10-20T04:05:57.150Z,10.3
2023-10-20T04:06:58.351Z,10.3
2023-10-20T04:07:59.493Z,10.3
2023-10-20T04:09:00.681Z,10.3
2023-10-20T04:10:01.842Z,10.3
2023-10-20T04:11:03.028Z,10.3
2023-10-20T04:12:04.187Z,10.3
2023-10-20T04:13:05.349Z,10.3
2023-10-20T04:14:09.114Z,10.3
2023-10-20T04:15:10.302Z,10.3
2023-10-20T04:16:11.480Z,10.3
2023-10-20T04:17:12.681Z,10.3
2023-10-20T04:18:13.924Z,10.3
2023-10-20T04:19:15.077Z,10.2
2023-10-20T04:20:16.269Z,10.2
2023-10-20T04:21:17.581Z,10.2
2023-10-20T04:22:18.808Z,10.2
2023-10-20T04:23:20.001Z,10.2
2023-10-20T04:24:21.219Z,10.2
2023-10-20T04:25:22.387Z,10.2
2023-10-20T04:26:23.564Z,10.2
2023-10-20T04:27:24.855Z,10.2
2023-10-20T04:28:26.004Z,10.2
2023-10-20T04:29:27.200Z,10.2
2023-10-20T04:30:28.397Z,10.2
2023-10-20T04:31:29.568Z,10.2
2023-10-20T04:32:30.838Z,10.2
2023-10-20T04:33:32.490Z,10.2
2023-10-20T04:34:33.909Z,10.2
2023-10-20T04:35:35.261Z,10.2
2023-10-20T04:36:36.488Z,10.2
2023-10-20T04:37:37.656Z,10.2
2023-10-20T04:38:38.861Z,10.2
2023-10-20T04:39:40.053Z,10.2
2023-10-20T04:40:41.262Z,10.2
2023-10-20T04:41:42.550Z,10.2
2023-10-20T04:42:43.833Z,10.2
2023-10-20T04:43:44.979Z,10.2
2023-10-20T04:44:46.166Z,10.2
2023-10-20T04:45:47.401Z,10.2
2023-10-20T04:46:48.576Z,10.2
2023-10-20T04:47:49.837Z,10.2
2023-10-20T04:48:51.252Z,10.2
2023-10-20T04:49:52.398Z,10.2
2023-10-20T04:50:53.564Z,10.2
2023-10-20T04:51:54.748Z,10.2
2023-10-20T04:52:55.919Z,10.2
2023-10-20T04:53:57.088Z,10.2
2023-10-20T04:54:58.244Z,10.2
2023-10-20T04:55:59.392Z,10.2
2023-10-20T04:57:00.554Z,10.2
2023-10-20T04:58:01.724Z,10.2
2023-10-20T04:59:02.884Z,10.2
2023-10-20T05:00:04.109Z,10.2
2023-10-20T05:01:05.289Z,10.2
2023-10-20T05:02:06.478Z,10.2
2023-10-20T05:03:07.708Z,10.2
2023-10-20T05:04:09.052Z,10.2
2023-10-20T05:05:10.266Z,10.2
2023-10-20T05:06:11.579Z,10.2
2023-10-20T05:07:12.748Z,10.2
2023-10-20T05:08:13.987Z,10.2
2023-10-20T05:09:15.216Z,10.2
2023-10-20T05:10:16.400Z,10.2
2023-10-20T05:11:17.601Z,10.2
2023-10-20T05:12:18.857Z,10.2
2023-10-20T05:13:20.029Z,10.2
2023-10-20T05:14:21.249Z,10.2
2023-10-20T05:15:22.416Z,10.2
2023-10-20T05:16:23.828Z,10.2
2023-10-20T05:17:25.103Z,10.2
2023-10-20T05:18:26.585Z,10.2
2023-10-20T05:19:27.790Z,10.2
2023-10-20T05:20:29.018Z,10.1
2023-10-20T05:21:30.291Z,10.1
2023-10-20T05:22:31.422Z,10.1
2023-10-20T05:23:32.635Z,10.1
2023-10-20T05:24:34.126Z,10.1
2023-10-20T05:25:36.010Z,10.1
2023-10-20T05:26:37.217Z,10.1
2023-10-20T05:27:38.473Z,10.1
2023-10-20T05:28:39.690Z,10.1
2023-10-20T05:29:41.168Z,10.1
2023-10-20T05:30:42.418Z,10.1
2023-10-20T05:31:43.640Z,10.1
2023-10-20T05:32:44.870Z,10.1
2023-10-20T05:33:46.156Z,10.1
2023-10-20T05:34:47.328Z,10.1
2023-10-20T05:35:48.533Z,10.1
2023-10-20T05:36:49.738Z,10.1
2023-10-20T05:37:50.882Z,10.1
2023-10-20T05:38:52.091Z,10.1
2023-10-20T05:39:53.223Z,10.1
2023-10-20T05:40:54.390Z,10.1
2023-10-20T05:41:55.596Z,10.1
2023-10-20T05:42:56.744Z,10.1
2023-10-20T05:43:57.923Z,10.1
2023-10-20T05:44:59.990Z,10.1
2023-10-20T05:46:03.928Z,10.1
2023-10-20T05:47:05.364Z,10.1
2023-10-20T05:48:06.650Z,10.1
2023-10-20T05:49:08.108Z,10.1
2023-10-20T05:50:09.296Z,10.1
2023-10-20T05:51:10.458Z,10.1
2023-10-20T05:52:11.663Z,10.1
2023-10-20T05:53:12.848Z,10.1
2023-10-20T05:54:14.081Z,10
2023-10-20T05:55:15.226Z,10
2023-10-20T05:56:16.482Z,10
2023-10-20T05:57:17.664Z,10
2023-10-20T05:58:18.829Z,10
2023-10-20T05:59:19.975Z,10
2023-10-20T06:00:21.133Z,10
2023-10-20T06:01:22.323Z,10
2023-10-20T06:02:23.479Z,10
2023-10-20T06:03:24.868Z,10
2023-10-20T06:04:26.243Z,10
2023-10-20T06:05:27.560Z,10
2023-10-20T06:06:28.756Z,10
2023-10-20T06:07:29.919Z,10
2023-10-20T06:08:31.144Z,10
2023-10-20T06:09:32.668Z,10
2023-10-20T06:10:33.798Z,10
2023-10-20T06:11:34.997Z,10
2023-10-20T06:12:36.197Z,10
2023-10-20T06:13:37.425Z,10
2023-10-20T06:14:38.598Z,10
2023-10-20T06:15:39.831Z,10
2023-10-20T06:16:41.009Z,10
2023-10-20T06:17:42.202Z,10
2023-10-20T06:18:43.692Z,10
2023-10-20T06:19:45.035Z,10
2023-10-20T06:20:46.232Z,10
2023-10-20T06:21:47.466Z,10
2023-10-20T06:22:48.627Z,10
2023-10-20T06:23:49.821Z,10
2023-10-20T06:24:51.092Z,10
2023-10-20T06:25:52.247Z,10
2023-10-20T06:26:53.446Z,10
2023-10-20T06:27:54.768Z,10
2023-10-20T06:28:55.951Z,10
2023-10-20T06:29:57.090Z,10
2023-10-20T06:30:58.316Z,10
2023-10-20T06:31:59.600Z,10
2023-10-20T06:33:00.948Z,10
2023-10-20T06:34:02.338Z,10
2023-10-20T06:35:03.495Z,10
2023-10-20T06:36:04.651Z,10
2023-10-20T06:37:05.820Z,10
2023-10-20T06:38:07.012Z,10
2023-10-20T06:39:08.215Z,10
2023-10-20T06:40:09.405Z,10
2023-10-20T06:41:10.551Z,10
2023-10-20T06:42:11.698Z,10
2023-10-20T06:43:12.878Z,10
2023-10-20T06:44:14.160Z,10
2023-10-20T06:45:15.306Z,10
2023-10-20T06:46:16.502Z,10
2023-10-20T06:47:17.812Z,10
2023-10-20T06:48:19.052Z,10
2023-10-20T06:49:20.688Z,10
2023-10-20T06:50:22.032Z,10
2023-10-20T06:51:23.208Z,10
2023-10-20T06:52:24.374Z,10
2023-10-20T06:53:25.544Z,10
2023-10-20T06:54:26.841Z,10
2023-10-20T06:55:50.782Z,10
2023-10-20T06:57:15.619Z,10
2023-10-20T06:58:16.819Z,10
2023-10-20T06:59:18.062Z,9.9
2023-10-20T07:00:19.306Z,10
2023-10-20T07:01:20.489Z,10
2023-10-20T07:02:21.773Z,10
2023-10-20T07:03:23.151Z,10
2023-10-20T07:04:24.451Z,9.9
2023-10-20T07:05:25.753Z,10
2023-10-20T07:06:26.956Z,9.9
2023-10-20T07:07:28.121Z,10
2023-10-20T07:08:29.328Z,10
2023-10-20T07:09:32.850Z,9.9
2023-10-20T07:10:34.024Z,9.9
2023-10-20T07:11:35.168Z,9.9
2023-10-20T07:12:36.359Z,9.9
2023-10-20T07:13:37.528Z,10
2023-10-20T07:14:38.716Z,9.9
2023-10-20T07:15:40.120Z,10
2023-10-20T07:16:41.275Z,9.9
2023-10-20T07:17:42.518Z,9.9
2023-10-20T07:18:43.915Z,9.9
2023-10-20T07:19:45.161Z,9.9
2023-10-20T07:20:46.753Z,9.9
2023-10-20T07:21:48.100Z,9.9
2023-10-20T07:22:49.287Z,9.9
2023-10-20T07:23:50.447Z,10
2023-10-20T07:24:51.694Z,9.9
2023-10-20T07:25:52.887Z,9.9
2023-10-20T07:26:54.132Z,9.9
2023-10-20T07:27:56.116Z,9.9
2023-10-20T07:28:59.393Z,9.9
2023-10-20T07:30:00.591Z,9.9
2023-10-20T07:31:01.809Z,10
2023-10-20T07:32:02.989Z,9.9
2023-10-20T07:33:04.179Z,9.9
2023-10-20T07:34:05.569Z,10
2023-10-20T07:35:06.941Z,9.9
2023-10-20T07:36:08.110Z,9.9
2023-10-20T07:37:09.304Z,10
2023-10-20T07:38:10.540Z,10
2023-10-20T07:39:11.968Z,10
2023-10-20T07:40:13.131Z,10
2023-10-20T07:41:14.665Z,9.9
2023-10-20T07:42:16.027Z,10
2023-10-20T07:43:17.223Z,9.9
2023-10-20T07:44:18.376Z,10
2023-10-20T07:45:19.546Z,9.9
2023-10-20T07:46:20.763Z,10
2023-10-20T07:47:21.967Z,10
2023-10-20T07:48:23.272Z,10
2023-10-20T07:49:24.506Z,10
2023-10-20T07:50:25.741Z,10
2023-10-20T07:51:27.610Z,10
2023-10-20T07:52:28.752Z,10
2023-10-20T07:53:29.925Z,10
2023-10-20T07:54:31.202Z,10
2023-10-20T07:55:32.432Z,10
2023-10-20T07:56:33.662Z,10
2023-10-20T07:57:34.828Z,10
2023-10-20T07:58:35.996Z,10
2023-10-20T07:59:37.297Z,10
2023-10-20T08:00:38.570Z,10
2023-10-20T08:01:39.781Z,10
2023-10-20T08:02:41.093Z,10
2023-10-20T08:03:42.569Z,10
2023-10-20T08:04:44.565Z,10
2023-10-20T08:05:46.587Z,10
2023-10-20T08:06:49.359Z,10
2023-10-20T08:07:51.289Z,10
2023-10-20T08:08:52.496Z,10
2023-10-20T08:09:53.702Z,10
2023-10-20T08:10:55.169Z,10
2023-10-20T08:11:56.396Z,10
2023-10-20T08:12:57.555Z,10
2023-10-20T08:13:58.851Z,10
2023-10-20T08:14:59.996Z,10
2023-10-20T08:16:01.218Z,10
2023-10-20T08:17:02.683Z,10
2023-10-20T08:18:03.919Z,10
2023-10-20T08:19:05.218Z,10
2023-10-20T08:20:06.382Z,10
2023-10-20T08:21:07.520Z,10
2023-10-20T08:22:08.690Z,10
2023-10-20T08:23:10.026Z,10
2023-10-20T08:24:11.560Z,10
2023-10-20T08:25:12.716Z,10
2023-10-20T08:26:13.917Z,10
2023-10-20T08:27:15.265Z,10
2023-10-20T08:28:16.409Z,10
2023-10-20T08:29:17.623Z,10
2023-10-20T08:30:18.969Z,10
2023-10-20T08:31:20.137Z,10
2023-10-20T08:32:21.372Z,10
2023-10-20T08:33:22.576Z,10
2023-10-20T08:34:23.740Z,10
2023-10-20T08:35:24.944Z,10
2023-10-20T08:36:26.208Z,10
2023-10-20T08:37:27.352Z,10
2023-10-20T08:38:28.557Z,10
2023-10-20T08:39:29.750Z,10.1
2023-10-20T08:40:31.447Z,10.1
2023-10-20T08:42:09.430Z,10.1
2023-10-20T08:43:13.111Z,10.1
2023-10-20T08:44:14.304Z,10
2023-10-20T08:45:15.540Z,10.1
2023-10-20T08:46:16.743Z,10.1
2023-10-20T08:47:18.129Z,10
2023-10-20T08:48:19.388Z,10.1
2023-10-20T08:49:20.726Z,10
2023-10-20T08:50:21.911Z,10.1
2023-10-20T08:51:23.092Z,10.1
2023-10-20T08:52:24.282Z,10.1
2023-10-20T08:53:25.459Z,10.1
2023-10-20T08:54:26.616Z,10.1
2023-10-20T08:55:27.781Z,10.1
2023-10-20T08:56:29.024Z,10.1
2023-10-20T08:57:30.178Z,10.1
2023-10-20T08:58:31.386Z,10.1
2023-10-20T08:59:33.097Z,10.1
2023-10-20T09:00:35.401Z,10.1
2023-10-20T09:01:59.974Z,10.1
2023-10-20T09:03:01.328Z,10.1
2023-10-20T09:04:02.795Z,10.1
2023-10-20T09:05:04.283Z,10.1
2023-10-20T09:06:05.449Z,10.1
2023-10-20T09:07:06.620Z,10.1
2023-10-20T09:08:07.799Z,10.1
2023-10-20T09:09:08.951Z,10.1
2023-10-20T09:10:10.133Z,10.1
2023-10-20T09:11:11.449Z,10.1
2023-10-20T09:12:12.726Z,10.1
2023-10-20T09:13:13.920Z,10.1
2023-10-20T09:14:15.482Z,10.1
2023-10-20T09:15:16.637Z,10.1
2023-10-20T09:16:17.979Z,10.1
2023-10-20T09:17:19.337Z,10.1
2023-10-20T09:18:20.632Z,10.1
2023-10-20T09:19:22.014Z,10.1
2023-10-20T09:20:23.201Z,10.1
2023-10-20T09:21:24.415Z,10.1
2023-10-20T09:22:25.582Z,10.1
2023-10-20T09:23:26.798Z,10.1
2023-10-20T09:24:27.955Z,10.1
2023-10-20T09:25:29.112Z,10.1
2023-10-20T09:26:30.312Z,10.1
2023-10-20T09:27:34.535Z,10.1
2023-10-20T09:28:38.180Z,10.1
2023-10-20T09:29:39.532Z,10.1
2023-10-20T09:30:40.773Z,10.1
2023-10-20T09:31:42.021Z,10.1
2023-10-20T09:32:43.530Z,10.1
2023-10-20T09:33:44.864Z,10.1
2023-10-20T09:34:46.055Z,10.1
2023-10-20T09:35:47.279Z,10.1
2023-10-20T09:36:48.467Z,10.1
2023-10-20T09:37:49.646Z,10.1
2023-10-20T09:38:51.022Z,10.1
2023-10-20T09:39:52.181Z,10.1
2023-10-20T09:40:53.380Z,10.1
2023-10-20T09:41:54.571Z,10.1
2023-10-20T09:42:56.396Z,10.1
2023-10-20T09:44:15.685Z,10.1
2023-10-20T09:45:16.953Z,10.1
2023-10-20T09:46:18.124Z,10.1
2023-10-20T09:47:21.505Z,10.1
2023-10-20T09:48:22.717Z,10.1
2023-10-20T09:49:24.098Z,10.1
2023-10-20T09:50:25.318Z,10.1
2023-10-20T09:51:26.591Z,10.1
2023-10-20T09:52:29.297Z,10.1
2023-10-20T09:53:31.463Z,10.1
2023-10-20T09:54:32.708Z,10.1
2023-10-20T09:55:33.885Z,10.1
2023-10-20T09:56:35.085Z,10.1
2023-10-20T09:57:36.316Z,10.1
2023-10-20T09:58:37.478Z,10.1
2023-10-20T09:59:38.692Z,10.1
2023-10-20T10:00:40.024Z,10.1
2023-10-20T10:01:41.197Z,10.1
2023-10-20T10:02:42.530Z,10.1
2023-10-20T10:03:44.136Z,10.1
2023-10-20T10:04:46.341Z,10.1
2023-10-20T10:05:49.602Z,10.1
2023-10-20T10:06:50.813Z,10.1
2023-10-20T10:07:51.988Z,10.1
2023-10-20T10:08:53.169Z,10.1
2023-10-20T10:09:54.396Z,10.1
2023-10-20T10:10:55.540Z,10.1
2023-10-20T10:11:56.833Z,10.1
2023-10-20T10:12:57.991Z,10.1
2023-10-20T10:13:59.169Z,10.1
2023-10-20T10:15:00.478Z,10.1
2023-10-20T10:16:01.751Z,10.1
2023-10-20T10:17:02.935Z,10.1
2023-10-20T10:18:04.156Z,10.2
2023-10-20T10:19:05.506Z,10.2
2023-10-20T10:20:06.691Z,10.2
2023-10-20T10:21:07.859Z,10.2
2023-10-20T10:22:09.007Z,10.2
2023-10-20T10:23:10.172Z,10.2
2023-10-20T10:24:11.334Z,10.2
2023-10-20T10:25:12.507Z,10.2
2023-10-20T10:26:13.774Z,10.2
2023-10-20T10:27:15.327Z,10.2
2023-10-20T10:28:16.604Z,10.2
2023-10-20T10:29:17.972Z,10.2
2023-10-20T10:30:19.154Z,10.2
2023-10-20T10:31:20.413Z,10.2
2023-10-20T10:32:21.623Z,10.3
2023-10-20T10:33:23.425Z,10.3
2023-10-20T10:34:25.424Z,10.3
2023-10-20T10:35:26.701Z,10.3
2023-10-20T10:36:28.137Z,10.3
2023-10-20T10:37:30.475Z,10.3
2023-10-20T10:38:32.538Z,10.3
2023-10-20T10:39:33.930Z,10.3
2023-10-20T10:40:36.026Z,10.3
2023-10-20T10:41:37.238Z,10.3
2023-10-20T10:42:38.433Z,10.3
2023-10-20T10:43:39.595Z,10.3
2023-10-20T10:44:41.224Z,10.3
2023-10-20T10:45:42.620Z,10.3
2023-10-20T10:46:43.830Z,10.3
2023-10-20T10:47:45.156Z,10.4
2023-10-20T10:48:46.618Z,10.4
2023-10-20T10:49:47.789Z,10.4
2023-10-20T10:50:49.508Z,10.4
2023-10-20T10:51:51.144Z,10.4
2023-10-20T10:52:53.329Z,10.4
2023-10-20T10:53:54.561Z,10.5
2023-10-20T10:54:55.754Z,10.5
2023-10-20T10:55:56.920Z,10.5
2023-10-20T10:56:58.169Z,10.5
2023-10-20T10:57:59.357Z,10.5
2023-10-20T10:59:00.488Z,10.5
2023-10-20T11:00:02.187Z,10.5
2023-10-20T11:01:03.669Z,10.5
2023-10-20T11:02:04.911Z,10.5
2023-10-20T11:03:06.816Z,10.5
2023-10-20T11:04:08.749Z,10.6
2023-10-20T11:05:10.231Z,10.6
2023-10-20T11:06:11.433Z,10.6
2023-10-20T11:07:12.616Z,10.6
2023-10-20T11:08:14.712Z,10.6
2023-10-20T11:09:19.589Z,10.6
2023-10-20T11:10:20.754Z,10.6
2023-10-20T11:11:21.987Z,10.6
2023-10-20T11:12:23.266Z,10.6
2023-10-20T11:13:24.425Z,10.6
2023-10-20T11:14:25.653Z,10.6
2023-10-20T11:15:27.032Z,10.6
2023-10-20T11:16:28.307Z,10.6
2023-10-20T11:17:29.775Z,10.6
2023-10-20T11:18:31.215Z,10.6
2023-10-20T11:19:32.607Z,10.6
2023-10-20T11:20:33.816Z,10.6
2023-10-20T11:21:35.074Z,10.6
2023-10-20T11:22:36.301Z,10.7
2023-10-20T11:23:37.478Z,10.7
2023-10-20T11:24:38.971Z,10.7
2023-10-20T11:25:40.316Z,10.7
2023-10-20T11:26:41.529Z,10.7
2023-10-20T11:27:42.695Z,10.7
2023-10-20T11:28:43.828Z,10.7
2023-10-20T11:29:55.588Z,10.7
2023-10-20T11:31:00.612Z,10.7
2023-10-20T11:32:01.926Z,10.7
2023-10-20T11:33:03.204Z,10.7
2023-10-20T11:34:04.513Z,10.7
2023-10-20T11:35:05.698Z,10.7
2023-10-20T11:36:06.884Z,10.7
2023-10-20T11:37:08.037Z,10.7
2023-10-20T11:38:09.245Z,10.7
2023-10-20T11:39:12.345Z,10.7
2023-10-20T11:40:15.153Z,10.7
2023-10-20T11:41:18.739Z,10.7
2023-10-20T11:42:19.881Z,10.7
2023-10-20T11:43:21.098Z,10.7
2023-10-20T11:44:22.277Z,10.7
2023-10-20T11:45:23.534Z,10.7
2023-10-20T11:46:24.741Z,10.7
2023-10-20T11:47:26.052Z,10.7
2023-10-20T11:48:27.441Z,10.7
2023-10-20T11:49:28.832Z,10.7
2023-10-20T11:50:30.098Z,10.7
2023-10-20T11:51:31.287Z,10.7
2023-10-20T11:52:32.442Z,10.7
2023-10-20T11:53:33.648Z,10.7
2023-10-20T11:54:34.947Z,10.7
2023-10-20T11:55:36.717Z,10.7
2023-10-20T11:56:37.921Z,10.7
2023-10-20T11:57:39.102Z,10.7
2023-10-20T11:58:40.260Z,10.7
2023-10-20T11:59:41.471Z,10.7
2023-10-20T12:00:42.819Z,10.7
2023-10-20T12:01:44.022Z,10.7
2023-10-20T12:02:45.477Z,10.7
2023-10-20T12:03:47.013Z,10.7
2023-10-20T12:04:48.515Z,10.7
2023-10-20T12:05:49.859Z,10.7
2023-10-20T12:06:51.038Z,10.7
2023-10-20T12:07:52.229Z,10.7
2023-10-20T12:08:53.399Z,10.7
2023-10-20T12:09:54.584Z,10.7
2023-10-20T12:10:55.747Z,10.7
2023-10-20T12:11:56.954Z,10.7
2023-10-20T12:12:58.117Z,10.7
2023-10-20T12:13:59.261Z,10.7
2023-10-20T12:15:00.487Z,10.7
2023-10-20T12:16:01.963Z,10.7
2023-10-20T12:17:03.149Z,10.7
2023-10-20T12:18:04.432Z,10.7
2023-10-20T12:19:05.829Z,10.7
2023-10-20T12:20:06.978Z,10.7
2023-10-20T12:21:08.189Z,10.6
2023-10-20T12:22:09.358Z,10.7
2023-10-20T12:23:10.549Z,10.7
2023-10-20T12:24:12.094Z,10.7
2023-10-20T12:25:13.258Z,10.7
2023-10-20T12:26:14.455Z,10.6
2023-10-20T12:27:15.592Z,10.7
2023-10-20T12:28:19.825Z,10.6
2023-10-20T12:29:21.043Z,10.6
2023-10-20T12:30:22.254Z,10.6
2023-10-20T12:31:23.506Z,10.6
2023-10-20T12:32:24.908Z,10.6
2023-10-20T12:33:26.261Z,10.6
2023-10-20T12:34:27.698Z,10.6
2023-10-20T12:35:28.882Z,10.6
2023-10-20T12:36:30.107Z,10.6
2023-10-20T12:37:31.272Z,10.6
2023-10-20T12:38:32.472Z,10.6
2023-10-20T12:39:33.668Z,10.6
2023-10-20T12:40:34.851Z,10.6
2023-10-20T12:41:36.036Z,10.6
2023-10-20T12:42:37.304Z,10.6
2023-10-20T12:43:38.455Z,10.6
2023-10-20T12:44:39.667Z,10.6
2023-10-20T12:45:40.997Z,10.6
2023-10-20T12:46:42.180Z,10.6
2023-10-20T12:47:43.495Z,10.6
2023-10-20T12:48:44.959Z,10.6
2023-10-20T12:49:46.279Z,10.6
2023-10-20T12:50:47.442Z,10.6
2023-10-20T12:51:48.906Z,10.6
2023-10-20T12:52:50.064Z,10.6
2023-10-20T12:53:51.275Z,10.6
2023-10-20T12:54:52.599Z,10.6
2023-10-20T12:55:53.759Z,10.5
2023-10-20T12:56:54.943Z,10.5
2023-10-20T12:57:56.245Z,10.5
2023-10-20T12:58:57.419Z,10.5
2023-10-20T12:59:58.633Z,10.5
2023-10-20T13:00:59.860Z,10.5
2023-10-20T13:02:01.114Z,10.5
2023-10-20T13:03:02.579Z,10.5
2023-10-20T13:04:04.058Z,10.5
2023-10-20T13:05:05.407Z,10.5
2023-10-20T13:06:06.603Z,10.5
2023-10-20T13:07:07.870Z,10.5
2023-10-20T13:08:09.040Z,10.5
2023-10-20T13:09:10.201Z,10.5
2023-10-20T13:10:11.367Z,10.5
2023-10-20T13:11:12.578Z,10.5
2023-10-20T13:12:13.731Z,10.5
2023-10-20T13:13:16.569Z,10.5
2023-10-20T13:14:19.028Z,10.4
2023-10-20T13:15:20.315Z,10.4
2023-10-20T13:16:21.468Z,10.4
2023-10-20T13:17:22.786Z,10.4
2023-10-20T13:18:26.642Z,10.4
2023-10-20T13:19:27.940Z,10.4
2023-10-20T13:20:29.167Z,10.4
2023-10-20T13:21:30.371Z,10.4
2023-10-20T13:22:31.539Z,10.4
2023-10-20T13:23:32.720Z,10.4
2023-10-20T13:24:34.201Z,10.4
2023-10-20T13:25:36.032Z,10.4
2023-10-20T13:26:37.238Z,10.4
2023-10-20T13:27:38.675Z,10.4
2023-10-20T13:28:39.842Z,10.4
2023-10-20T13:29:41.020Z,10.3
2023-10-20T13:30:42.246Z,10.3
2023-10-20T13:32:09.060Z,10.3
2023-10-20T13:33:10.286Z,10.3
2023-10-20T13:34:11.756Z,10.3
2023-10-20T13:35:12.988Z,10.3
2023-10-20T13:36:14.452Z,10.3
2023-10-20T13:37:20.076Z,10.3
2023-10-20T13:38:32.550Z,10.3
2023-10-20T13:39:34.226Z,10.3
2023-10-20T13:40:35.559Z,10.3
2023-10-20T13:41:36.852Z,10.3
2023-10-20T13:42:38.032Z,10.3
2023-10-20T13:43:39.308Z,10.3
2023-10-20T13:44:40.463Z,10.3
2023-10-20T13:45:41.679Z,10.3
2023-10-20T13:46:42.843Z,10.2
2023-10-20T13:47:44.110Z,10.2
2023-10-20T13:48:45.381Z,10.2
2023-10-20T13:49:46.545Z,10.2
2023-10-20T13:50:47.756Z,10.2